Terminal Aerodrome Forecast
Issued by NWS Wilmington, OH

Home | Current Version | Previous Version | Text Only | Print | Product List | Glossary On
Versions: 1 2 3 4 5 6 7 8 9 10 11 12 13 14 15 16 17 18 19 20 21 22 23 24 25 26 27 28 29 30 31 32 33 34
677
FTUS41 KILN 032320
TAFCVG
TAF
KCVG 032320Z 0400/0506 28006KT P6SM BKN040 OVC080
     FM040400 22005KT P6SM FEW050 SCT090
     FM041000 22008KT P6SM BKN080
     FM041500 24012G22KT 4SM -SHRA OVC040
     FM041800 24012G22KT 4SM -SHRA BR VCTS SCT015 OVC025CB
     FM042100 32014G24KT P6SM VCSH BKN015 OVC022
     FM050300 30010KT P6SM VCSH BKN015 OVC022=

USA.gov is the U.S. government's official web portal to all federal, state and local government web resources and services.